Litchfield, Maine
Current Conditions -  °F | °C
As of 9:53 AM on Wednesday 26 Nov 2014 (Local Time) from KAUG Reporting Station
Broken Clouds Broken Clouds  
Wind Chill: 31°   Ceiling: 11000
Heat Index: 38°   Visibility: 10mi
Dew Point: 22°   Wind: 9mph
Humidity: 53%   Direction: 360°N
Pressure: 30.23"   Gusts: NA
Location:  44.22°N, 69.94°W
Report Text: KAUG 261453Z AUTO 36008KT 10SM BKN110 03/M06 A3023 RMK AO2 SLP240 T00331056 51019
Loading
Personal Weather Stations






























Interactive Weather Map New forecast layout! Learn more

10-Day Weather Forecast

Advertisements
Track Severe Weather on mobile